Svanen — LKXK — position and weather

sailwx.info

Track history (hours):
 
Tides and Currents Weather Stations Pressure Air Temp Water Temp Dewpoint Dewpoint Depression Visibility Wind Speed Wind Dir Waves Ship Positions

Svanen (Norway)

Ship's website: http://www.svanen.no/english/english.php1

Last reported at 2016-Jul-27 06:06 UTC. Time now 2016-Jul-27 15:28 UTC.
Position N 57°46' E 010°42'.

Length 27 m; draft 2.8 m.

Type: Sailing vessel. MMSI: 259173000.

Date/timePositionNaut miles runAvg speedWind from/ knotsBaromVisibWave heightAir tempDewpointWater temp
2016-Jul-27 06:06N 57°46' E 010°42'5 0.1
2016-Jul-25 17:27N 57°43' E 010°36'5 6.0
2016-Jul-25 16:33N 57°44' E 010°45'7 7.1
2016-Jul-25 15:34N 57°47' E 010°57'5 5.4
2016-Jul-25 14:33N 57°50' E 011°06'3 3.5
2016-Jul-25 13:34N 57°50' E 011°13'5 4.8
2016-Jul-25 12:33N 57°52' E 011°21'5 5.3
2016-Jul-25 11:33N 57°54' E 011°30'3 0.7
2016-Jul-25 07:13N 57°55' E 011°35'0 0.0
2016-Jul-25 06:31N 57°55' E 011°35'0 0.0
2016-Jul-25 05:22N 57°55' E 011°35'0 0.0
2016-Jul-25 04:31N 57°55' E 011°35'0 0.0
2016-Jul-25 03:34N 57°55' E 011°35'0 0.0
2016-Jul-25 02:25N 57°55' E 011°35'0 0.0
2016-Jul-25 01:27N 57°55' E 011°35'0 0.0
2016-Jul-25 00:34N 57°55' E 011°35'0 0.0
2016-Jul-24 23:16N 57°55' E 011°35'0 0.0
2016-Jul-24 21:31N 57°55' E 011°35'0 0.0
2016-Jul-24 17:07N 57°55' E 011°35'0 0.0
2016-Jul-24 15:24N 57°55' E 011°35'3 3.0
2016-Jul-24 14:34N 57°57' E 011°31'7 6.6
2016-Jul-24 13:33N 58°01' E 011°22'7 6.6
2016-Jul-24 12:34N 58°07' E 011°17'6 6.1
2016-Jul-24 11:34N 58°13' E 011°15'7 6.9
2016-Jul-24 10:33N 58°20' E 011°11'7 7.3
2016-Jul-24 09:33N 58°27' E 011°13'5 5.1
2016-Jul-24 08:31N 58°32' E 011°16'1 0.2
2016-Jul-24 03:05N 58°33' E 011°16'0 0.0
2016-Jul-23 21:16N 58°33' E 011°16'0 0.0
2016-Jul-23 18:32N 58°33' E 011°16'0 0.0
2016-Jul-23 17:11N 58°33' E 011°16'0 0.0
2016-Jul-23 16:17N 58°33' E 011°16'0 0.0
2016-Jul-23 15:29N 58°33' E 011°16'0 0.0
2016-Jul-23 14:33N 58°33' E 011°16'3 2.9
2016-Jul-23 13:33N 58°36' E 011°14'3 2.6
2016-Jul-23 12:33N 58°38' E 011°12'4 3.7
2016-Jul-23 11:33N 58°42' E 011°10'4 3.9
2016-Jul-23 10:33N 58°46' E 011°11'5 4.6
2016-Jul-23 09:33N 58°50' E 011°07'5 5.5
2016-Jul-23 08:33N 58°55' E 011°06'2 2.2
2016-Jul-23 07:32N 58°56' E 011°10'0 0.0
2016-Jul-23 06:33N 58°56' E 011°10'0 0.0
2016-Jul-22 21:33N 58°56' E 011°10'0 0.0
2016-Jul-22 20:33N 58°56' E 011°10'0 0.0
2016-Jul-22 19:12N 58°56' E 011°10'0 0.0
2016-Jul-22 18:30N 58°56' E 011°10'0 0.0
2016-Jul-22 17:33N 58°56' E 011°10'0 0.0
2016-Jul-22 16:33N 58°56' E 011°10'0 0.0
2016-Jul-22 15:30N 58°56' E 011°10'0 0.0
2016-Jul-22 14:33N 58°56' E 011°10'4 4.1
2016-Jul-22 13:33N 58°57' E 011°02'6 6.1
2016-Jul-22 12:33N 59°01' E 010°53'3 2.7
2016-Jul-22 11:33N 59°03' E 010°49'4 4.1
2016-Jul-22 10:33N 59°07' E 010°47'3 2.8
2016-Jul-22 09:33N 59°10' E 010°46'4 3.6
2016-Jul-22 08:33N 59°13' E 010°47'0 0.1
2016-Jul-22 07:31N 59°13' E 010°47'0 0.0
2016-Jul-22 05:33N 59°13' E 010°47'0 0.0
2016-Jul-22 04:33N 59°13' E 010°47'0 0.0
2016-Jul-22 03:31N 59°13' E 010°47'0 0.0
2016-Jul-22 02:33N 59°13' E 010°47'0 0.0
2016-Jul-22 01:31N 59°13' E 010°47'0 0.0
2016-Jul-22 00:33N 59°13' E 010°47'0 0.0
2016-Jul-21 23:31N 59°13' E 010°47'0 0.0
2016-Jul-21 22:31N 59°13' E 010°47'0 0.0
2016-Jul-21 21:31N 59°13' E 010°47'0 0.0
2016-Jul-21 20:30N 59°13' E 010°47'0 0.0
2016-Jul-21 19:31N 59°13' E 010°47'0 0.0
2016-Jul-21 18:31N 59°13' E 010°47'1 0.7
2016-Jul-21 17:34N 59°14' E 010°46'2 2.5
2016-Jul-21 16:34N 59°15' E 010°42'3 3.2
2016-Jul-21 15:34N 59°15' E 010°36'5 5.0
2016-Jul-21 14:34N 59°20' E 010°34'7 7.3
2016-Jul-21 13:34N 59°27' E 010°33'7 7.3
2016-Jul-21 12:34N 59°34' E 010°37'8 7.5
2016-Jul-21 11:33N 59°42' E 010°36'8 7.7
2016-Jul-21 10:34N 59°49' E 010°34'3 0.1
2016-Jul-19 11:33N 59°52' E 010°39'5 5.1
2016-Jul-19 10:33N 59°47' E 010°35'4 4.4
2016-Jul-19 09:33N 59°43' E 010°33'3 2.7
2016-Jul-19 08:30N 59°40' E 010°36'0 0.0
2016-Jul-19 07:32N 59°40' E 010°36'0 0.0
2016-Jul-19 04:33N 59°40' E 010°36'0 0.0
2016-Jul-19 03:33N 59°40' E 010°36'0 0.0
2016-Jul-19 02:27N 59°40' E 010°36'0 0.0
2016-Jul-19 01:33N 59°40' E 010°36'0 0.0
2016-Jul-19 00:27N 59°40' E 010°36'0 0.0
2016-Jul-18 22:29N 59°40' E 010°36'0 0.0
2016-Jul-18 21:33N 59°40' E 010°36'0 0.0
2016-Jul-18 20:24N 59°40' E 010°36'0 0.0
2016-Jul-18 19:27N 59°40' E 010°36'0 0.0
2016-Jul-18 18:33N 59°40' E 010°36'0 0.0
2016-Jul-18 17:15N 59°40' E 010°36'0 0.0
2016-Jul-18 16:30N 59°40' E 010°36'1 0.7
2016-Jul-18 15:33N 59°40' E 010°36'7 7.4
2016-Jul-18 14:33N 59°32' E 010°38'8 7.7
2016-Jul-18 13:33N 59°25' E 010°35'8 7.7
2016-Jul-18 12:34N 59°18' E 010°41'8 7.9
2016-Jul-18 11:33N 59°10' E 010°45'4 4.3
2016-Jul-18 10:33N 59°06' E 010°48'7 6.6
2016-Jul-18 09:33N 59°01' E 010°56'6 5.9
2016-Jul-18 08:33N 59°07' E 010°58'5 5.2
2016-Jul-18 07:33N 59°12' E 010°57'0 0.0
2016-Jul-18 06:24N 59°12' E 010°57'0 0.0
2016-Jul-18 05:30N 59°12' E 010°57'0 0.0
2016-Jul-18 04:28N 59°12' E 010°57'0 0.0
2016-Jul-18 03:31N 59°12' E 010°57'0 0.0
2016-Jul-18 02:33N 59°12' E 010°57'0 0.0
2016-Jul-18 01:30N 59°12' E 010°57'0 0.0
2016-Jul-18 00:33N 59°12' E 010°57'0 0.0
2016-Jul-17 23:34N 59°12' E 010°57'0 0.0
2016-Jul-17 22:31N 59°12' E 010°57'0 0.0
2016-Jul-17 21:33N 59°12' E 010°57'0 0.0
2016-Jul-17 20:33N 59°12' E 010°57'0 0.0
2016-Jul-17 19:31N 59°12' E 010°57'0 0.0
2016-Jul-17 18:25N 59°12' E 010°57'0 0.0
2016-Jul-17 17:31N 59°12' E 010°57'0 0.0
2016-Jul-17 16:31N 59°12' E 010°57'0 0.0
2016-Jul-17 15:31N 59°12' E 010°57'0 0.0
2016-Jul-17 14:31N 59°12' E 010°57'0 0.0
2016-Jul-17 13:33N 59°12' E 010°57'0 0.4
2016-Jul-17 12:33N 59°12' E 010°57'5 4.9
2016-Jul-17 11:34N 59°08' E 011°01'5 5.3
2016-Jul-17 10:33N 59°03' E 011°07'6 5.8
2016-Jul-17 09:34N 58°58' E 011°07'2 1.8
2016-Jul-17 08:28N 58°56' E 011°10'0 0.0
2016-Jul-17 07:31N 58°56' E 011°10'0 0.0
2016-Jul-17 06:28N 58°56' E 011°10'  
Track history (hours):
 
Tides and Currents Weather Stations Pressure Air Temp Water Temp Dewpoint Dewpoint Depression Visibility Wind Speed Wind Dir Waves Ship Positions

Svanen (Norway)

Ship's website: http://www.svanen.no/english/english.php1

Last reported at 2016-Jul-27 06:06 UTC. Time now 2016-Jul-27 15:28 UTC.
Position N 57°46' E 010°42'.

Length 27 m; draft 2.8 m.

Type: Sailing vessel. MMSI: 259173000.

Date/timePositionNaut miles runAvg speedWind from/ knotsBaromVisibWave heightAir tempDewpointWater temp
2016-Jul-27 06:06N 57°46' E 010°42'5 0.1
2016-Jul-25 17:27N 57°43' E 010°36'5 6.0
2016-Jul-25 16:33N 57°44' E 010°45'7 7.1
2016-Jul-25 15:34N 57°47' E 010°57'5 5.4
2016-Jul-25 14:33N 57°50' E 011°06'3 3.5
2016-Jul-25 13:34N 57°50' E 011°13'5 4.8
2016-Jul-25 12:33N 57°52' E 011°21'5 5.3
2016-Jul-25 11:33N 57°54' E 011°30'3 0.7
2016-Jul-25 07:13N 57°55' E 011°35'0 0.0
2016-Jul-25 06:31N 57°55' E 011°35'0 0.0
2016-Jul-25 05:22N 57°55' E 011°35'0 0.0
2016-Jul-25 04:31N 57°55' E 011°35'0 0.0
2016-Jul-25 03:34N 57°55' E 011°35'0 0.0
2016-Jul-25 02:25N 57°55' E 011°35'0 0.0
2016-Jul-25 01:27N 57°55' E 011°35'0 0.0
2016-Jul-25 00:34N 57°55' E 011°35'0 0.0
2016-Jul-24 23:16N 57°55' E 011°35'0 0.0
2016-Jul-24 21:31N 57°55' E 011°35'0 0.0
2016-Jul-24 17:07N 57°55' E 011°35'0 0.0
2016-Jul-24 15:24N 57°55' E 011°35'3 3.0
2016-Jul-24 14:34N 57°57' E 011°31'7 6.6
2016-Jul-24 13:33N 58°01' E 011°22'7 6.6
2016-Jul-24 12:34N 58°07' E 011°17'6 6.1
2016-Jul-24 11:34N 58°13' E 011°15'7 6.9
2016-Jul-24 10:33N 58°20' E 011°11'7 7.3
2016-Jul-24 09:33N 58°27' E 011°13'5 5.1
2016-Jul-24 08:31N 58°32' E 011°16'1 0.2
2016-Jul-24 03:05N 58°33' E 011°16'0 0.0
2016-Jul-23 21:16N 58°33' E 011°16'0 0.0
2016-Jul-23 18:32N 58°33' E 011°16'0 0.0
2016-Jul-23 17:11N 58°33' E 011°16'0 0.0
2016-Jul-23 16:17N 58°33' E 011°16'0 0.0
2016-Jul-23 15:29N 58°33' E 011°16'0 0.0
2016-Jul-23 14:33N 58°33' E 011°16'3 2.9
2016-Jul-23 13:33N 58°36' E 011°14'3 2.6
2016-Jul-23 12:33N 58°38' E 011°12'4 3.7
2016-Jul-23 11:33N 58°42' E 011°10'4 3.9
2016-Jul-23 10:33N 58°46' E 011°11'5 4.6
2016-Jul-23 09:33N 58°50' E 011°07'5 5.5
2016-Jul-23 08:33N 58°55' E 011°06'2 2.2
2016-Jul-23 07:32N 58°56' E 011°10'0 0.0
2016-Jul-23 06:33N 58°56' E 011°10'0 0.0
2016-Jul-22 21:33N 58°56' E 011°10'0 0.0
2016-Jul-22 20:33N 58°56' E 011°10'0 0.0
2016-Jul-22 19:12N 58°56' E 011°10'0 0.0
2016-Jul-22 18:30N 58°56' E 011°10'0 0.0
2016-Jul-22 17:33N 58°56' E 011°10'0 0.0
2016-Jul-22 16:33N 58°56' E 011°10'0 0.0
2016-Jul-22 15:30N 58°56' E 011°10'0 0.0
2016-Jul-22 14:33N 58°56' E 011°10'4 4.1
2016-Jul-22 13:33N 58°57' E 011°02'6 6.1
2016-Jul-22 12:33N 59°01' E 010°53'3 2.7
2016-Jul-22 11:33N 59°03' E 010°49'4 4.1
2016-Jul-22 10:33N 59°07' E 010°47'3 2.8
2016-Jul-22 09:33N 59°10' E 010°46'4 3.6
2016-Jul-22 08:33N 59°13' E 010°47'0 0.1
2016-Jul-22 07:31N 59°13' E 010°47'0 0.0
2016-Jul-22 05:33N 59°13' E 010°47'0 0.0
2016-Jul-22 04:33N 59°13' E 010°47'0 0.0
2016-Jul-22 03:31N 59°13' E 010°47'0 0.0
2016-Jul-22 02:33N 59°13' E 010°47'0 0.0
2016-Jul-22 01:31N 59°13' E 010°47'0 0.0
2016-Jul-22 00:33N 59°13' E 010°47'0 0.0
2016-Jul-21 23:31N 59°13' E 010°47'0 0.0
2016-Jul-21 22:31N 59°13' E 010°47'0 0.0
2016-Jul-21 21:31N 59°13' E 010°47'0 0.0
2016-Jul-21 20:30N 59°13' E 010°47'0 0.0
2016-Jul-21 19:31N 59°13' E 010°47'0 0.0
2016-Jul-21 18:31N 59°13' E 010°47'1 0.7
2016-Jul-21 17:34N 59°14' E 010°46'2 2.5
2016-Jul-21 16:34N 59°15' E 010°42'3 3.2
2016-Jul-21 15:34N 59°15' E 010°36'5 5.0
2016-Jul-21 14:34N 59°20' E 010°34'7 7.3
2016-Jul-21 13:34N 59°27' E 010°33'7 7.3
2016-Jul-21 12:34N 59°34' E 010°37'8 7.5
2016-Jul-21 11:33N 59°42' E 010°36'8 7.7
2016-Jul-21 10:34N 59°49' E 010°34'3 0.1
2016-Jul-19 11:33N 59°52' E 010°39'5 5.1
2016-Jul-19 10:33N 59°47' E 010°35'4 4.4
2016-Jul-19 09:33N 59°43' E 010°33'3 2.7
2016-Jul-19 08:30N 59°40' E 010°36'0 0.0
2016-Jul-19 07:32N 59°40' E 010°36'0 0.0
2016-Jul-19 04:33N 59°40' E 010°36'0 0.0
2016-Jul-19 03:33N 59°40' E 010°36'0 0.0
2016-Jul-19 02:27N 59°40' E 010°36'0 0.0
2016-Jul-19 01:33N 59°40' E 010°36'0 0.0
2016-Jul-19 00:27N 59°40' E 010°36'0 0.0
2016-Jul-18 22:29N 59°40' E 010°36'0 0.0
2016-Jul-18 21:33N 59°40' E 010°36'0 0.0
2016-Jul-18 20:24N 59°40' E 010°36'0 0.0
2016-Jul-18 19:27N 59°40' E 010°36'0 0.0
2016-Jul-18 18:33N 59°40' E 010°36'0 0.0
2016-Jul-18 17:15N 59°40' E 010°36'0 0.0
2016-Jul-18 16:30N 59°40' E 010°36'1 0.7
2016-Jul-18 15:33N 59°40' E 010°36'7 7.4
2016-Jul-18 14:33N 59°32' E 010°38'8 7.7
2016-Jul-18 13:33N 59°25' E 010°35'8 7.7
2016-Jul-18 12:34N 59°18' E 010°41'8 7.9
2016-Jul-18 11:33N 59°10' E 010°45'4 4.3
2016-Jul-18 10:33N 59°06' E 010°48'7 6.6
2016-Jul-18 09:33N 59°01' E 010°56'6 5.9
2016-Jul-18 08:33N 59°07' E 010°58'5 5.2
2016-Jul-18 07:33N 59°12' E 010°57'0 0.0
2016-Jul-18 06:24N 59°12' E 010°57'0 0.0
2016-Jul-18 05:30N 59°12' E 010°57'0 0.0
2016-Jul-18 04:28N 59°12' E 010°57'0 0.0
2016-Jul-18 03:31N 59°12' E 010°57'0 0.0
2016-Jul-18 02:33N 59°12' E 010°57'0 0.0
2016-Jul-18 01:30N 59°12' E 010°57'0 0.0
2016-Jul-18 00:33N 59°12' E 010°57'0 0.0
2016-Jul-17 23:34N 59°12' E 010°57'0 0.0
2016-Jul-17 22:31N 59°12' E 010°57'0 0.0
2016-Jul-17 21:33N 59°12' E 010°57'0 0.0
2016-Jul-17 20:33N 59°12' E 010°57'0 0.0
2016-Jul-17 19:31N 59°12' E 010°57'0 0.0
2016-Jul-17 18:25N 59°12' E 010°57'0 0.0
2016-Jul-17 17:31N 59°12' E 010°57'0 0.0
2016-Jul-17 16:31N 59°12' E 010°57'0 0.0
2016-Jul-17 15:31N 59°12' E 010°57'0 0.0
2016-Jul-17 14:31N 59°12' E 010°57'0 0.0
2016-Jul-17 13:33N 59°12' E 010°57'0 0.4
2016-Jul-17 12:33N 59°12' E 010°57'5 4.9
2016-Jul-17 11:34N 59°08' E 011°01'5 5.3
2016-Jul-17 10:33N 59°03' E 011°07'6 5.8
2016-Jul-17 09:34N 58°58' E 011°07'2 1.8
2016-Jul-17 08:28N 58°56' E 011°10'0 0.0
2016-Jul-17 07:31N 58°56' E 011°10'0 0.0
2016-Jul-17 06:28N 58°56' E 011°10'  

Dump ship's entire track history